Time;durP1;ratioP1;P1;durP2;ratioP2;P2;SDS_P1;SDS_P2;PMS_P1;PMS_P2;Temp;Humidity;BMP_temperature;BMP_pressure;BME280_temperature;BME280_humidity;BME280_pressure;Samples;Min_cycle;Max_cycle;Signal;HPM_P1;HPM_P2
2023/08/21 00:01:40;;;;;;;4.35;3.95;;;;;;;24.23;nan;100990.16;4985739;28;20033;-77
2023/08/21 00:04:05;;;;;;;4.43;4.07;;;;;;;24.24;nan;100989.19;4992870;28;20419;-78
2023/08/21 00:06:31;;;;;;;4.40;4.00;;;;;;;24.23;nan;100990.16;4985023;28;20133;-77
2023/08/21 00:08:56;;;;;;;4.50;4.10;;;;;;;24.23;nan;100992.81;4987091;28;20157;-77
2023/08/21 00:11:22;;;;;;;4.55;4.20;;;;;;;24.23;nan;100998.97;4985894;28;20034;-77
2023/08/21 00:13:49;;;;;;;4.45;3.72;;;;;;;24.23;nan;100991.00;4991383;28;20030;-78
2023/08/21 00:16:15;;;;;;;4.88;4.15;;;;;;;24.23;nan;100998.97;4990376;28;20026;-77
2023/08/21 00:18:40;;;;;;;4.35;3.97;;;;;;;24.24;nan;100991.84;4985466;28;20019;-78
2023/08/21 00:21:05;;;;;;;4.82;4.35;;;;;;;24.22;nan;100991.97;4985313;28;20060;-78
2023/08/21 00:23:31;;;;;;;4.43;3.65;;;;;;;24.24;nan;100989.19;4985914;28;20065;-78
2023/08/21 00:25:57;;;;;;;4.68;4.25;;;;;;;24.24;nan;100983.88;4991498;28;20053;-78
2023/08/21 00:28:22;;;;;;;4.18;3.85;;;;;;;24.24;nan;100991.84;4985395;28;20034;-78
2023/08/21 00:30:47;;;;;;;4.28;3.88;;;;;;;24.24;nan;100994.50;4984471;28;20707;-78
2023/08/21 00:33:12;;;;;;;5.10;4.18;;;;;;;24.24;nan;100997.16;4992827;28;20034;-77
2023/08/21 00:35:38;;;;;;;4.30;4.00;;;;;;;24.23;nan;100988.34;4991859;28;20041;-77
2023/08/21 00:38:03;;;;;;;4.55;4.25;;;;;;;24.23;nan;100993.66;4986119;28;20038;-78
2023/08/21 00:40:33;;;;;;;4.63;4.22;;;;;;;24.22;nan;100991.97;4983964;28;20037;-77
2023/08/21 00:42:58;;;;;;;4.70;4.25;;;;;;;24.23;nan;100991.00;4991948;28;20085;-77
2023/08/21 00:45:24;;;;;;;4.38;3.97;;;;;;;24.23;nan;100988.34;4987883;28;20074;-78
2023/08/21 00:47:49;;;;;;;4.30;4.00;;;;;;;24.23;nan;100991.00;4986141;28;20372;-78
2023/08/21 00:50:15;;;;;;;3.88;3.60;;;;;;;24.24;nan;100986.53;4983774;28;20042;-77
2023/08/21 00:52:45;;;;;;;4.13;3.83;;;;;;;24.24;nan;100981.22;4982067;28;20053;-78
2023/08/21 00:55:11;;;;;;;3.92;3.65;;;;;;;24.23;nan;100987.50;4991504;28;20442;-77
2023/08/21 00:57:37;;;;;;;4.35;3.95;;;;;;;24.23;nan;100982.19;4985008;28;20029;-77
2023/08/21 01:00:04;;;;;;;4.22;3.83;;;;;;;24.24;nan;100999.78;4984939;28;20038;-77
2023/08/21 01:02:29;;;;;;;4.20;3.90;;;;;;;24.24;nan;100991.84;4987585;28;20118;-78
2023/08/21 01:04:54;;;;;;;4.63;4.18;;;;;;;24.23;nan;100985.69;4985776;28;20030;-77
2023/08/21 01:07:20;;;;;;;4.40;4.03;;;;;;;24.24;nan;100986.53;4985082;28;20040;-77
2023/08/21 01:09:56;;;;;;;4.10;3.70;;;;;;;24.23;nan;100985.69;4985081;28;20031;-77
2023/08/21 01:12:35;;;;;;;4.05;3.67;;;;;;;24.23;nan;100991.00;4984858;28;20045;-78
2023/08/21 01:15:03;;;;;;;3.88;3.58;;;;;;;24.24;nan;100989.19;4986689;28;20034;-77
2023/08/21 01:17:30;;;;;;;4.07;3.70;;;;;;;24.24;nan;100990.03;4984037;28;20450;-78
2023/08/21 01:19:55;;;;;;;4.05;3.72;;;;;;;24.24;nan;100995.31;4981883;28;20128;-78
2023/08/21 01:22:26;;;;;;;4.00;3.70;;;;;;;24.23;nan;101001.59;4979921;28;20045;-77
2023/08/21 01:24:51;;;;;;;4.10;3.80;;;;;;;24.24;nan;100994.50;4975579;28;20049;-77
2023/08/21 01:27:17;;;;;;;4.00;3.70;;;;;;;24.24;nan;100999.78;4983407;28;20109;-77
2023/08/21 01:29:42;;;;;;;4.07;3.78;;;;;;;24.23;nan;100998.13;4981980;28;20084;-77
2023/08/21 01:32:14;;;;;;;4.10;3.70;;;;;;;24.24;nan;101002.44;4983697;28;20026;-77
2023/08/21 01:34:40;;;;;;;4.15;3.85;;;;;;;24.24;nan;100991.84;4989610;28;20030;-79
2023/08/21 01:37:06;;;;;;;4.35;3.95;;;;;;;24.23;nan;100991.00;4980472;28;20053;-77
2023/08/21 01:39:32;;;;;;;4.30;3.90;;;;;;;24.24;nan;100994.50;4982215;28;20437;-77
2023/08/21 01:41:58;;;;;;;3.97;3.63;;;;;;;24.23;nan;100998.13;4965032;28;20018;-78
2023/08/21 01:44:24;;;;;;;4.10;3.70;;;;;;;24.24;nan;100992.69;4984349;28;20037;-78
2023/08/21 01:46:49;;;;;;;4.10;3.70;;;;;;;24.24;nan;100991.84;4964223;28;20025;-77
2023/08/21 01:49:14;;;;;;;4.25;3.90;;;;;;;24.23;nan;100991.00;4982007;28;20033;-77
2023/08/21 01:51:40;;;;;;;4.70;4.25;;;;;;;24.24;nan;100991.84;4982908;28;20112;-78
2023/08/21 01:54:05;;;;;;;4.00;3.70;;;;;;;24.24;nan;100999.78;4989283;28;20028;-78
2023/08/21 01:56:30;;;;;;;3.80;3.50;;;;;;;24.23;nan;100995.47;4985497;28;20038;-77
2023/08/21 01:58:56;;;;;;;4.15;3.85;;;;;;;24.23;nan;100996.31;4981676;28;20561;-77
2023/08/21 02:01:21;;;;;;;4.20;3.80;;;;;;;24.23;nan;101001.59;4965781;28;20065;-78
2023/08/21 02:03:46;;;;;;;4.00;3.70;;;;;;;24.24;nan;100997.16;4984236;28;20037;-78
2023/08/21 02:06:12;;;;;;;4.05;3.75;;;;;;;24.23;nan;101001.59;4979524;28;20751;-78
2023/08/21 02:08:37;;;;;;;3.85;3.55;;;;;;;24.23;nan;101008.72;4981743;28;20322;-77
2023/08/21 02:11:02;;;;;;;4.03;3.55;;;;;;;24.24;nan;101003.28;4982384;28;20845;-77
2023/08/21 02:13:28;;;;;;;4.30;3.80;;;;;;;24.24;nan;101005.09;4976020;28;20120;-77
2023/08/21 02:15:53;;;;;;;3.72;3.42;;;;;;;24.24;nan;101005.09;4987654;28;20040;-77
2023/08/21 02:18:18;;;;;;;3.70;3.40;;;;;;;24.24;nan;101005.94;4982237;28;20088;-77
2023/08/21 02:20:44;;;;;;;4.00;3.70;;;;;;;24.25;nan;101006.78;4982729;28;20137;-78
2023/08/21 02:23:09;;;;;;;4.15;3.80;;;;;;;24.24;nan;101000.63;4980830;28;20143;-77
2023/08/21 02:25:35;;;;;;;4.00;3.70;;;;;;;24.24;nan;101002.44;4990515;28;20057;-77
2023/08/21 02:28:01;;;;;;;4.03;3.63;;;;;;;24.24;nan;101008.59;4982974;28;20136;-78
2023/08/21 02:30:28;;;;;;;3.88;3.58;;;;;;;24.24;nan;101011.25;4981278;28;20461;-78
2023/08/21 02:32:53;;;;;;;4.00;3.70;;;;;;;24.24;nan;101011.25;4978828;28;20030;-77
2023/08/21 02:35:19;;;;;;;3.65;3.35;;;;;;;24.24;nan;101005.94;4976849;28;20124;-78
2023/08/21 02:37:45;;;;;;;4.05;3.75;;;;;;;24.24;nan;101005.94;4982693;28;20031;-78
2023/08/21 02:40:10;;;;;;;3.22;3.00;;;;;;;24.24;nan;101008.59;4982031;28;20045;-77
2023/08/21 02:42:38;;;;;;;3.60;3.38;;;;;;;24.24;nan;101010.41;4987226;28;20402;-78
2023/08/21 02:45:08;;;;;;;3.60;3.30;;;;;;;24.24;nan;101007.75;4982308;28;20030;-78
2023/08/21 02:47:36;;;;;;;4.05;3.65;;;;;;;24.24;nan;101013.91;4980347;28;20036;-77
2023/08/21 02:50:04;;;;;;;4.07;3.75;;;;;;;24.23;nan;101011.38;4982689;28;20454;-78
2023/08/21 02:52:29;;;;;;;4.18;3.88;;;;;;;24.24;nan;101013.06;4980384;28;20840;-78
2023/08/21 02:54:54;;;;;;;3.90;3.60;;;;;;;24.24;nan;101007.75;4983791;28;20029;-78
2023/08/21 02:57:20;;;;;;;3.63;3.42;;;;;;;24.24;nan;101010.41;4980120;28;20034;-78
2023/08/21 02:59:45;;;;;;;4.07;3.78;;;;;;;24.24;nan;101013.91;4981060;28;20081;-77
2023/08/21 03:02:11;;;;;;;4.13;3.80;;;;;;;24.24;nan;101016.56;4983772;28;20034;-77
2023/08/21 03:04:36;;;;;;;4.30;3.95;;;;;;;24.24;nan;101005.09;4976584;28;20038;-78
2023/08/21 03:07:02;;;;;;;3.60;3.30;;;;;;;24.25;nan;101004.13;4986312;28;20501;-78
2023/08/21 03:09:28;;;;;;;4.07;3.78;;;;;;;24.24;nan;101002.44;4985631;28;20029;-77
2023/08/21 03:11:53;;;;;;;3.95;3.47;;;;;;;24.24;nan;101011.25;4986354;28;20053;-78
2023/08/21 03:14:18;;;;;;;3.72;3.42;;;;;;;24.24;nan;101002.44;4981439;28;20038;-77
2023/08/21 03:16:44;;;;;;;3.80;3.50;;;;;;;24.24;nan;101003.28;4984545;28;20076;-78
2023/08/21 03:19:09;;;;;;;3.88;3.58;;;;;;;24.24;nan;101007.75;4985596;28;20026;-77
2023/08/21 03:21:34;;;;;;;3.85;3.55;;;;;;;24.24;nan;101003.28;4985958;28;20030;-78
2023/08/21 03:24:00;;;;;;;3.95;3.65;;;;;;;24.24;nan;101003.28;4994851;28;20029;-78
2023/08/21 03:26:25;;;;;;;3.85;3.30;;;;;;;24.23;nan;101000.78;4986367;28;20160;-78
2023/08/21 03:28:51;;;;;;;4.40;4.00;;;;;;;24.25;nan;101009.44;4984942;28;20053;-78
2023/08/21 03:31:16;;;;;;;4.43;3.47;;;;;;;24.24;nan;101005.94;4986628;28;20396;-78
2023/08/21 03:33:42;;;;;;;3.67;3.38;;;;;;;24.24;nan;101003.28;4987110;28;20060;-78
2023/08/21 03:36:07;;;;;;;3.83;3.53;;;;;;;24.23;nan;100996.31;4986257;28;20034;-77
2023/08/21 03:38:32;;;;;;;3.45;3.20;;;;;;;24.24;nan;101005.94;4984420;28;20046;-77
2023/08/21 03:40:59;;;;;;;4.03;3.70;;;;;;;24.25;nan;101006.78;4985404;28;20026;-78
2023/08/21 03:43:24;;;;;;;3.78;3.47;;;;;;;24.24;nan;101000.63;4991697;28;20033;-77
2023/08/21 03:45:50;;;;;;;3.92;3.45;;;;;;;24.24;nan;101003.28;4986620;28;20080;-77
2023/08/21 03:48:15;;;;;;;3.78;3.47;;;;;;;24.24;nan;101002.44;4983382;28;20113;-77
2023/08/21 03:50:40;;;;;;;3.38;3.15;;;;;;;24.25;nan;101004.13;4983917;28;20129;-78
2023/08/21 03:53:06;;;;;;;3.70;3.40;;;;;;;24.24;nan;101011.25;4987497;28;20022;-78
2023/08/21 03:55:31;;;;;;;3.78;3.47;;;;;;;24.23;nan;101004.25;4988774;28;20029;-77
2023/08/21 03:57:56;;;;;;;3.92;3.63;;;;;;;24.25;nan;101014.75;4983796;28;20150;-78
2023/08/21 04:00:22;;;;;;;4.20;3.80;;;;;;;24.24;nan;101010.41;4984439;28;20040;-77
2023/08/21 04:02:47;;;;;;;3.85;3.63;;;;;;;24.24;nan;101013.06;4991043;28;20037;-77
2023/08/21 04:05:12;;;;;;;3.50;3.30;;;;;;;24.24;nan;101015.72;4991637;28;20510;-78
2023/08/21 04:07:38;;;;;;;3.88;3.58;;;;;;;24.24;nan;101015.72;4983648;28;20200;-78
2023/08/21 04:10:04;;;;;;;3.75;3.45;;;;;;;24.24;nan;101013.91;4983854;28;20033;-78
2023/08/21 04:12:29;;;;;;;3.67;3.38;;;;;;;24.24;nan;101019.22;4985237;28;20030;-78
2023/08/21 04:14:54;;;;;;;3.97;3.67;;;;;;;24.24;nan;101023.69;4983031;28;20048;-78
2023/08/21 04:17:21;;;;;;;3.80;3.45;;;;;;;24.24;nan;101021.03;4986213;28;20069;-78
2023/08/21 04:19:47;;;;;;;3.53;3.28;;;;;;;24.24;nan;101023.69;4985315;28;20037;-78
2023/08/21 04:22:12;;;;;;;4.05;3.75;;;;;;;24.23;nan;101020.19;4985832;28;20037;-79
2023/08/21 04:24:37;;;;;;;4.30;3.90;;;;;;;24.24;nan;101027.16;4991076;28;20085;-77
2023/08/21 04:27:03;;;;;;;3.75;3.47;;;;;;;24.24;nan;101018.38;4988628;28;20061;-77
2023/08/21 04:29:28;;;;;;;3.53;3.28;;;;;;;24.25;nan;101028.00;4986403;28;20030;-78
2023/08/21 04:31:53;;;;;;;3.90;3.30;;;;;;;24.24;nan;101032.47;4985649;28;20036;-79
2023/08/21 04:34:19;;;;;;;3.80;3.50;;;;;;;24.24;nan;101028.97;4997214;28;20038;-78
2023/08/21 04:36:44;;;;;;;3.38;3.08;;;;;;;24.24;nan;101027.16;4989639;28;20486;-78
2023/08/21 04:39:09;;;;;;;4.50;3.75;;;;;;;24.25;nan;101030.66;4985186;28;21283;-78
2023/08/21 04:41:35;;;;;;;3.95;3.65;;;;;;;24.24;nan;101035.13;4985143;28;20773;-77
2023/08/21 04:44:01;;;;;;;3.97;3.67;;;;;;;24.24;nan;101026.34;4991892;28;20457;-78
2023/08/21 04:46:26;;;;;;;3.60;3.30;;;;;;;24.25;nan;101035.97;4992685;28;20042;-78
2023/08/21 04:48:52;;;;;;;3.80;3.50;;;;;;;24.25;nan;101038.63;4987024;28;20032;-78
2023/08/21 04:51:17;;;;;;;4.05;3.75;;;;;;;24.24;nan;101040.44;4986204;28;20140;-76
2023/08/21 04:53:48;;;;;;;4.05;3.75;;;;;;;24.24;nan;101040.44;4990224;28;20551;-78
2023/08/21 04:56:14;;;;;;;3.80;3.50;;;;;;;24.26;nan;101042.97;4984497;28;20092;-77
2023/08/21 04:58:39;;;;;;;3.50;3.30;;;;;;;24.25;nan;101041.28;4986992;28;20038;-78
2023/08/21 05:01:05;;;;;;;3.85;3.55;;;;;;;24.25;nan;101043.94;4986542;28;20058;-78
2023/08/21 05:03:30;;;;;;;3.90;3.60;;;;;;;24.24;nan;101042.25;4989056;28;20057;-76
2023/08/21 05:05:56;;;;;;;3.88;3.58;;;;;;;24.25;nan;101050.06;4981122;28;20038;-78
2023/08/21 05:08:23;;;;;;;3.45;3.15;;;;;;;24.25;nan;101049.25;4984972;28;20061;-78
2023/08/21 05:10:48;;;;;;;3.80;3.50;;;;;;;24.25;nan;101054.53;4985132;28;20038;-76
2023/08/21 05:13:16;;;;;;;3.70;3.40;;;;;;;24.25;nan;101054.53;4995259;28;20371;-78
2023/08/21 05:15:42;;;;;;;3.78;3.47;;;;;;;24.24;nan;101060.81;4984294;28;20026;-78
2023/08/21 05:18:08;;;;;;;3.13;2.92;;;;;;;24.25;nan;101059.84;4984793;28;20076;-77
2023/08/21 05:20:33;;;;;;;3.55;3.30;;;;;;;24.25;nan;101062.50;4984747;28;20125;-77
2023/08/21 05:22:58;;;;;;;3.75;3.45;;;;;;;24.24;nan;101056.34;4984246;28;20038;-77
2023/08/21 05:25:24;;;;;;;3.58;3.28;;;;;;;24.25;nan;101054.53;4977156;28;20034;-77
2023/08/21 05:27:49;;;;;;;3.65;3.40;;;;;;;24.26;nan;101064.19;4963808;28;20121;-77
2023/08/21 05:30:15;;;;;;;3.70;3.40;;;;;;;24.25;nan;101062.50;4963176;28;20110;-76
2023/08/21 05:32:40;;;;;;;4.00;3.60;;;;;;;24.25;nan;101067.81;4969260;28;20526;-77
2023/08/21 05:35:08;;;;;;;3.30;3.10;;;;;;;24.25;nan;101062.50;4961473;28;20511;-77
2023/08/21 05:37:33;;;;;;;3.60;3.30;;;;;;;24.25;nan;101073.13;4962437;28;20438;-77
2023/08/21 05:39:58;;;;;;;3.78;3.47;;;;;;;24.25;nan;101071.31;4963418;28;20034;-77
2023/08/21 05:42:24;;;;;;;3.58;3.38;;;;;;;24.25;nan;101066.00;4967545;28;20500;-76
2023/08/21 05:44:49;;;;;;;3.65;3.40;;;;;;;24.26;nan;101069.50;4971516;28;20438;-76
2023/08/21 05:47:14;;;;;;;3.92;3.60;;;;;;;24.26;nan;101066.84;4958742;28;20038;-77
2023/08/21 05:49:40;;;;;;;3.72;3.40;;;;;;;24.26;nan;101080.09;4962947;28;20842;-78
2023/08/21 05:52:05;;;;;;;3.63;3.38;;;;;;;24.25;nan;101079.25;4961611;28;20080;-78
2023/08/21 05:54:30;;;;;;;3.85;3.55;;;;;;;24.26;nan;101077.44;4968480;28;20394;-77
2023/08/21 05:56:56;;;;;;;3.78;3.47;;;;;;;24.26;nan;101082.75;4964084;28;20149;-77
2023/08/21 05:59:30;;;;;;;3.60;3.30;;;;;;;24.27;nan;101084.44;4962720;28;20080;-77
2023/08/21 06:01:56;;;;;;;4.05;3.75;;;;;;;24.25;nan;101087.22;4960655;28;20100;-76
2023/08/21 06:04:21;;;;;;;3.50;3.20;;;;;;;24.25;nan;101089.88;4962779;28;21290;-77
2023/08/21 06:06:46;;;;;;;3.45;3.25;;;;;;;24.26;nan;101090.72;4945515;28;20845;-77
2023/08/21 06:09:12;;;;;;;3.60;3.30;;;;;;;24.26;nan;101088.06;4963155;28;20038;-77
2023/08/21 06:11:38;;;;;;;3.90;3.60;;;;;;;24.25;nan;101089.88;4962406;28;20034;-78
2023/08/21 06:14:04;;;;;;;3.88;3.58;;;;;;;24.25;nan;101089.03;4959475;28;20035;-77
2023/08/21 06:16:29;;;;;;;3.80;3.50;;;;;;;24.26;nan;101090.72;4961324;28;20039;-74
2023/08/21 06:18:54;;;;;;;3.25;3.05;;;;;;;24.25;nan;101089.88;4960978;28;20034;-76
2023/08/21 06:21:20;;;;;;;3.65;3.35;;;;;;;24.25;nan;101089.88;4944636;28;20042;-75
2023/08/21 06:23:45;;;;;;;3.67;3.38;;;;;;;24.26;nan;101098.69;4966370;28;20026;-76
2023/08/21 06:26:10;;;;;;;4.07;3.75;;;;;;;24.26;nan;101101.34;4963889;28;20046;-76
2023/08/21 06:28:36;;;;;;;3.50;3.30;;;;;;;24.26;nan;101098.69;4981148;28;20034;-76
2023/08/21 06:31:07;;;;;;;3.78;3.47;;;;;;;24.27;nan;101105.66;4982148;28;20034;-76
2023/08/21 06:33:33;;;;;;;3.63;3.30;;;;;;;24.26;nan;101106.63;4978147;28;20036;-75
2023/08/21 06:35:58;;;;;;;3.33;3.13;;;;;;;24.25;nan;101103.16;4977649;28;20038;-75
2023/08/21 06:38:23;;;;;;;3.63;3.33;;;;;;;24.26;nan;101104.00;4980611;28;20429;-74
2023/08/21 06:40:49;;;;;;;3.72;3.42;;;;;;;24.26;nan;101099.53;4981838;28;20072;-78
2023/08/21 06:43:14;;;;;;;3.30;3.10;;;;;;;24.26;nan;101104.00;4981134;28;20069;-75
2023/08/21 06:45:39;;;;;;;3.58;3.28;;;;;;;24.27;nan;101108.31;4980379;28;20675;-76
2023/08/21 06:48:05;;;;;;;3.45;3.15;;;;;;;24.27;nan;101105.66;4984842;28;20069;-76
2023/08/21 06:50:31;;;;;;;3.45;3.17;;;;;;;24.27;nan;101110.97;4985570;28;20731;-75
2023/08/21 06:52:56;;;;;;;3.85;3.53;;;;;;;24.26;nan;101107.47;4984163;28;20117;-75
2023/08/21 06:55:21;;;;;;;3.88;3.58;;;;;;;24.27;nan;101108.31;4997043;28;20116;-76
2023/08/21 06:57:47;;;;;;;3.45;3.20;;;;;;;24.27;nan;101103.00;4985322;28;20056;-76
2023/08/21 07:00:12;;;;;;;3.90;3.60;;;;;;;24.27;nan;101098.53;4985297;28;20060;-76
2023/08/21 07:02:38;;;;;;;3.58;3.28;;;;;;;24.27;nan;101105.66;4984071;28;20137;-76
2023/08/21 07:05:03;;;;;;;3.88;3.58;;;;;;;24.27;nan;101103.00;4997185;28;20501;-76
2023/08/21 07:07:29;;;;;;;4.07;3.78;;;;;;;24.27;nan;101103.84;4984266;28;20038;-76
2023/08/21 07:09:54;;;;;;;4.35;3.90;;;;;;;24.26;nan;101104.81;4986145;28;20790;-75
2023/08/21 07:12:21;;;;;;;3.70;3.40;;;;;;;24.27;nan;101106.50;4984916;28;20034;-76
2023/08/21 07:14:47;;;;;;;4.03;3.72;;;;;;;24.27;nan;101103.00;4987328;28;20149;-76
2023/08/21 07:17:12;;;;;;;3.80;3.50;;;;;;;24.27;nan;101106.50;4985257;28;20040;-75
2023/08/21 07:19:38;;;;;;;4.10;3.80;;;;;;;24.28;nan;101104.72;4986157;28;20026;-76
2023/08/21 07:22:03;;;;;;;3.80;3.50;;;;;;;24.28;nan;101104.72;4987606;28;20057;-76
2023/08/21 07:24:28;;;;;;;3.58;3.30;;;;;;;24.28;nan;101110.03;4997338;28;20025;-76
2023/08/21 07:26:54;;;;;;;3.85;3.53;;;;;;;24.28;nan;101110.03;4988171;28;20085;-77
2023/08/21 07:29:19;;;;;;;4.38;4.03;;;;;;;24.28;nan;101107.38;4985214;28;20880;-75
2023/08/21 07:31:44;;;;;;;3.65;3.35;;;;;;;24.29;nan;101111.72;4985693;28;20030;-76
2023/08/21 07:34:10;;;;;;;3.67;3.38;;;;;;;24.29;nan;101111.72;4998559;28;20116;-76
2023/08/21 07:36:35;;;;;;;3.97;3.67;;;;;;;24.29;nan;101104.59;4990215;28;20036;-75
2023/08/21 07:39:01;;;;;;;4.00;3.70;;;;;;;24.28;nan;101107.38;4984776;28;20030;-75
2023/08/21 07:41:26;;;;;;;3.65;3.35;;;;;;;24.28;nan;101113.53;4983505;28;20053;-74
2023/08/21 07:43:51;;;;;;;3.80;3.50;;;;;;;24.29;nan;101103.75;4981263;28;20121;-76
2023/08/21 07:46:18;;;;;;;3.95;3.58;;;;;;;24.29;nan;101106.41;4982992;28;20038;-75
2023/08/21 07:48:44;;;;;;;4.05;3.75;;;;;;;24.29;nan;101114.38;4987119;28;20034;-76
2023/08/21 07:51:09;;;;;;;3.97;3.67;;;;;;;24.30;nan;101113.41;4984223;28;20030;-76
2023/08/21 07:53:35;;;;;;;3.90;3.55;;;;;;;24.30;nan;101110.75;4968444;28;20034;-75
2023/08/21 07:56:01;;;;;;;3.67;3.38;;;;;;;24.30;nan;101116.06;4982680;28;20030;-75
2023/08/21 07:58:26;;;;;;;3.97;3.58;;;;;;;24.30;nan;101113.41;4968811;28;20045;-75
2023/08/21 08:00:52;;;;;;;3.67;3.38;;;;;;;24.29;nan;101112.56;4986948;28;20026;-76
2023/08/21 08:03:17;;;;;;;4.20;3.80;;;;;;;24.29;nan;101117.03;4995435;28;20418;-76
2023/08/21 08:05:43;;;;;;;3.90;3.60;;;;;;;24.30;nan;101108.09;4996392;28;20026;-75
2023/08/21 08:08:09;;;;;;;3.78;3.22;;;;;;;24.30;nan;101110.75;4985025;28;20061;-76
2023/08/21 08:10:39;;;;;;;3.72;3.42;;;;;;;24.30;nan;101108.09;4985966;28;20089;-76
2023/08/21 08:13:05;;;;;;;3.60;3.30;;;;;;;24.30;nan;101113.41;4992467;28;20048;-76
2023/08/21 08:15:31;;;;;;;4.00;3.70;;;;;;;24.30;nan;101106.28;4978139;28;20030;-77
2023/08/21 08:17:57;;;;;;;3.90;3.60;;;;;;;24.30;nan;101118.72;4984590;28;20041;-76
2023/08/21 08:20:22;;;;;;;3.80;3.50;;;;;;;24.30;nan;101114.25;4966459;28;20029;-76
2023/08/21 08:22:48;;;;;;;3.70;3.40;;;;;;;24.31;nan;101117.72;4982242;28;20038;-76
2023/08/21 08:25:13;;;;;;;3.83;3.53;;;;;;;24.30;nan;101111.59;4993918;28;20493;-75
2023/08/21 08:27:39;;;;;;;4.03;3.72;;;;;;;24.31;nan;101118.56;4985114;28;20054;-76
2023/08/21 08:30:05;;;;;;;3.50;3.25;;;;;;;24.31;nan;101109.78;4983987;28;20034;-76
2023/08/21 08:32:30;;;;;;;3.75;3.45;;;;;;;24.31;nan;101112.44;4994643;28;20127;-74
2023/08/21 08:34:56;;;;;;;3.70;3.40;;;;;;;24.30;nan;101114.25;4997405;28;20092;-76
2023/08/21 08:37:21;;;;;;;4.00;3.70;;;;;;;24.31;nan;101113.28;4984621;28;20137;-76
2023/08/21 08:39:47;;;;;;;3.75;3.45;;;;;;;24.32;nan;101122.06;4984636;28;20029;-75
2023/08/21 08:42:14;;;;;;;3.80;3.47;;;;;;;24.32;nan;101106.16;4986333;28;20068;-76
2023/08/21 08:44:41;;;;;;;3.97;3.58;;;;;;;24.32;nan;101108.81;4988952;28;20497;-76
2023/08/21 08:47:06;;;;;;;3.97;3.67;;;;;;;24.31;nan;101105.31;4985966;28;20029;-76
2023/08/21 08:49:32;;;;;;;3.70;3.40;;;;;;;24.33;nan;101100.75;4984458;28;20470;-76
2023/08/21 08:51:58;;;;;;;4.00;3.70;;;;;;;24.33;nan;101102.53;4985031;28;20030;-76
2023/08/21 08:54:25;;;;;;;3.80;3.50;;;;;;;24.33;nan;101107.81;4988136;28;20038;-76
2023/08/21 08:56:51;;;;;;;4.30;3.88;;;;;;;24.33;nan;101103.41;4981929;28;20062;-76
2023/08/21 08:59:16;;;;;;;3.90;3.60;;;;;;;24.32;nan;101101.69;4983215;28;20058;-76
2023/08/21 09:01:41;;;;;;;3.63;3.35;;;;;;;24.33;nan;101102.53;4984361;28;20538;-74
2023/08/21 09:04:07;;;;;;;4.18;3.88;;;;;;;24.32;nan;101096.38;4994830;28;20060;-74
2023/08/21 09:06:33;;;;;;;3.72;3.42;;;;;;;24.33;nan;101103.41;4989577;28;20417;-76
2023/08/21 09:08:59;;;;;;;3.78;3.47;;;;;;;24.33;nan;101091.91;4983632;28;20049;-77
2023/08/21 09:11:24;;;;;;;3.70;3.40;;;;;;;24.35;nan;101091.84;4984827;28;20038;-76
2023/08/21 09:13:51;;;;;;;3.58;3.38;;;;;;;24.35;nan;101094.50;4996271;28;20026;-76
2023/08/21 09:16:20;;;;;;;3.75;3.45;;;;;;;24.33;nan;101090.13;4980861;28;20478;-75
2023/08/21 09:18:49;;;;;;;3.95;3.55;;;;;;;24.34;nan;101090.97;4984420;28;20034;-75
2023/08/21 09:21:19;;;;;;;3.72;3.42;;;;;;;24.34;nan;101085.66;4967187;28;20050;-76
2023/08/21 09:23:48;;;;;;;4.38;3.70;;;;;;;24.34;nan;101090.97;4970321;28;20040;-76
2023/08/21 09:26:21;;;;;;;4.05;3.70;;;;;;;24.34;nan;101080.34;4990507;28;20050;-76
2023/08/21 09:28:47;;;;;;;3.85;3.55;;;;;;;24.35;nan;101081.22;4984385;28;20038;-76
2023/08/21 09:31:13;;;;;;;3.92;3.60;;;;;;;24.35;nan;101084.72;4982897;28;20026;-76
2023/08/21 09:33:38;;;;;;;3.40;3.10;;;;;;;24.35;nan;101084.72;4995829;28;20029;-76
2023/08/21 09:36:04;;;;;;;4.32;3.60;;;;;;;24.35;nan;101076.75;4989739;28;20034;-76
2023/08/21 09:38:30;;;;;;;3.67;3.40;;;;;;;24.35;nan;101079.41;4983996;28;20140;-76
2023/08/21 09:40:56;;;;;;;3.85;3.50;;;;;;;24.35;nan;101071.44;4966725;28;20037;-76
2023/08/21 09:43:24;;;;;;;4.03;3.63;;;;;;;24.35;nan;101068.78;4986218;28;20999;-76
2023/08/21 09:45:53;;;;;;;4.43;4.03;;;;;;;24.36;nan;101069.63;4987359;28;20030;-77
2023/08/21 09:48:20;;;;;;;3.65;3.38;;;;;;;24.36;nan;101069.63;4983864;28;20034;-77
2023/08/21 09:50:46;;;;;;;4.10;3.80;;;;;;;24.36;nan;101073.13;4965499;28;20890;-76
2023/08/21 09:53:12;;;;;;;3.53;3.28;;;;;;;24.36;nan;101065.16;4982609;28;20083;-76
2023/08/21 09:55:38;;;;;;;4.03;3.72;;;;;;;24.36;nan;101059.84;4992372;28;20825;-76
2023/08/21 09:58:04;;;;;;;3.63;3.33;;;;;;;24.36;nan;101061.66;4982013;28;20617;-76
2023/08/21 10:00:33;;;;;;;3.72;3.42;;;;;;;24.37;nan;101058.03;4965109;28;20025;-76
2023/08/21 10:03:04;;;;;;;4.07;3.78;;;;;;;24.37;nan;101064.19;4990571;28;20105;-78
2023/08/21 10:05:31;;;;;;;3.80;3.50;;;;;;;24.37;nan;101058.03;4974992;28;20724;-77
2023/08/21 10:08:00;;;;;;;3.53;3.33;;;;;;;24.37;nan;101061.53;4983071;28;20095;-76
2023/08/21 10:10:26;;;;;;;3.88;3.58;;;;;;;24.36;nan;101051.91;4982206;28;20030;-75
2023/08/21 10:12:51;;;;;;;3.83;3.53;;;;;;;24.37;nan;101056.22;4978221;28;20140;-76
2023/08/21 10:15:16;;;;;;;3.97;3.63;;;;;;;24.37;nan;101050.94;4987143;28;20029;-76
2023/08/21 10:17:43;;;;;;;3.83;3.53;;;;;;;24.37;nan;101045.63;4972736;28;20557;-75
2023/08/21 10:20:09;;;;;;;3.90;3.58;;;;;;;24.38;nan;101041.16;4980307;28;20030;-76
2023/08/21 10:22:45;;;;;;;3.75;3.45;;;;;;;24.37;nan;101048.28;4984701;28;20030;-75
2023/08/21 10:25:25;;;;;;;3.80;3.50;;;;;;;24.38;nan;101042.00;4976818;28;20022;-76
2023/08/21 10:27:59;;;;;;;3.70;3.40;;;;;;;24.38;nan;101042.00;4981687;28;20080;-76
2023/08/21 10:30:26;;;;;;;3.53;3.22;;;;;;;24.38;nan;101041.16;4980593;28;20489;-77
2023/08/21 10:32:54;;;;;;;3.90;3.60;;;;;;;24.38;nan;101049.94;4978819;28;20441;-75
2023/08/21 10:35:24;;;;;;;3.42;3.22;;;;;;;24.39;nan;101037.53;4985318;28;20132;-77
2023/08/21 10:38:17;;;;;;;3.78;3.42;;;;;;;24.38;nan;101034.03;4982250;28;20026;-76
2023/08/21 10:41:07;;;;;;;3.67;3.38;;;;;;;24.38;nan;101036.69;4979873;28;20038;-77
2023/08/21 10:43:46;;;;;;;3.83;3.53;;;;;;;24.39;nan;101038.38;4993052;28;20664;-76
2023/08/21 10:46:12;;;;;;;3.42;3.22;;;;;;;24.39;nan;101030.41;4989230;28;20118;-76
2023/08/21 10:48:38;;;;;;;4.05;3.75;;;;;;;24.39;nan;101033.06;4980802;28;20046;-77
2023/08/21 10:51:06;;;;;;;3.50;3.30;;;;;;;24.39;nan;101033.06;4980539;28;20030;-76
2023/08/21 10:53:32;;;;;;;3.47;3.17;;;;;;;24.40;nan;101040.06;4989650;28;20694;-76
2023/08/21 10:56:01;;;;;;;3.95;3.60;;;;;;;24.40;nan;101036.59;4989609;28;20029;-76
2023/08/21 10:58:26;;;;;;;3.70;3.40;;;;;;;24.40;nan;101031.28;4980542;28;20040;-76
2023/08/21 11:00:59;;;;;;;3.95;3.63;;;;;;;24.40;nan;101029.47;4982708;28;20398;-76
2023/08/21 11:03:24;;;;;;;3.95;3.65;;;;;;;24.40;nan;101026.81;4990972;28;20631;-77
2023/08/21 11:06:09;;;;;;;3.83;3.53;;;;;;;24.41;nan;101025.81;4991119;28;20084;-77
2023/08/21 11:08:35;;;;;;;3.83;3.53;;;;;;;24.40;nan;101021.50;4981475;28;20335;-76
2023/08/21 11:11:02;;;;;;;4.35;4.00;;;;;;;24.41;nan;101028.47;4983224;28;20030;-77
2023/08/21 11:13:27;;;;;;;4.30;4.00;;;;;;;24.40;nan;101021.50;4986780;28;20039;-76
2023/08/21 11:16:02;;;;;;;3.90;3.60;;;;;;;24.40;nan;101021.50;4980118;28;20031;-77
2023/08/21 11:18:35;;;;;;;4.00;3.60;;;;;;;24.41;nan;101033.78;4982106;28;20430;-76
2023/08/21 11:21:10;;;;;;;4.00;3.70;;;;;;;24.41;nan;101031.13;4966039;28;20493;-76
2023/08/21 11:23:40;;;;;;;3.92;3.63;;;;;;;24.41;nan;101023.19;4992328;28;20144;-76
2023/08/21 11:26:07;;;;;;;4.00;3.70;;;;;;;24.41;nan;101020.53;4990246;28;20929;-77
2023/08/21 11:28:32;;;;;;;3.67;3.38;;;;;;;24.42;nan;101024.00;4987325;28;20482;-76
2023/08/21 11:30:58;;;;;;;3.95;3.65;;;;;;;24.42;nan;101016.91;4986836;28;20064;-76
2023/08/21 11:33:25;;;;;;;4.15;3.72;;;;;;;24.42;nan;101016.91;4994106;28;20480;-76
2023/08/21 11:35:53;;;;;;;3.83;3.53;;;;;;;24.43;nan;101015.91;4996403;28;20053;-77
2023/08/21 11:38:20;;;;;;;3.97;3.67;;;;;;;24.43;nan;101023.88;4986517;28;20034;-77